Nearby METAR Reports

 

YSCB - Canberra (civ/Mi, Australia
Distance from station: NNW 6km
Updated: Mon, 20-Aug-2018 7:30am AEST
Few Clouds
Few Clouds
 Wind from SE
Wind: SE 6 km/h
Temperature: -3°C
Dew Point: -6°C
Humidity: 80%
Barometer: 1020 hPa
Clouds: Few Clouds
Visibility: 10 km
Cloud details: Few Clouds 1524 m
2018/08/19 21:30 YSCB 192130Z 13003KT 9999 FEW050 M03/M06 Q1020 NOSIG
YCOM - Cooma Snowy Mtns, Australia
Distance from station: S 110km
Updated: Mon, 20-Aug-2018 7:00am AEST
Overcast
Overcast
 Wind from SW
Wind: SW 31 km/h
Temperature: -1°C
Wind Chill: -8°C
Dew Point: -5°C
Humidity: 75%
Barometer: 1018 hPa
Clouds: Overcast
Visibility: 10 km
Cloud details: Overcast 884 m
2018/08/19 21:00 YCOM 192100Z AUTO 23017KT 9999 // OVC029 M01/M05 Q1018
 
YSNW - Nowra (aus-Navy), Australia
Distance from station: ENE 127km
Updated: Mon, 20-Aug-2018 7:00am AEST
Clear
Clear
 Wind from W
Wind: W 22 km/h
Temperature: 6°C
Wind Chill: 2°C
Dew Point: -3°C
Humidity: 53%
Barometer: 1019 hPa
Summary: Clear
Visibility: greater than 10 km
2018/08/19 21:00 YSNW 192100Z 27012KT CAVOK 06/M03 Q1019 FM2100 MOD/SEV TURB BLW 5000FT
YSWG - Wagga Wagga(Cv/M, Australia
Distance from station: W 159km
Updated: Mon, 20-Aug-2018 7:00am AEST
Clear
Clear
 Wind from NNW
Wind: NNW 9 km/h
Temperature: 1°C
Wind Chill: -2°C
Dew Point: 1°C
Humidity: 100%
Barometer: 1023 hPa
Clouds: Clear
Visibility: 10 km
2018/08/19 21:00 YSWG 192100Z AUTO 33005KT 9999 // NCD 01/01 Q1023
 
YMER - Merimbula Arpt, Australia
Distance from station: SSE 187km
Updated: Mon, 20-Aug-2018 7:00am AEST
Clear
Clear
 Wind from W
Wind: W 15 km/h
Temperature: 7°C
Wind Chill: 4°C
Dew Point: 2°C
Humidity: 71%
Barometer: 1020 hPa
Clouds: Clear
Visibility: 10 km
2018/08/19 21:00 YMER 192100Z AUTO 27008KT 9999 // NCD 07/02 Q1020
YMAY - Albury Airport, Australia
Distance from station: WSW 220km
Updated: Mon, 20-Aug-2018 7:00am AEST
Clear
Clear
 Wind from calm
Wind: Calm
Temperature: -1°C
Dew Point: -2°C
Humidity: 93%
Barometer: 1023 hPa
Clouds: Clear
Visibility: 10 km
2018/08/19 21:00 YMAY 192100Z AUTO 00000KT 9999 // NCD M01/M02 Q1023
 
YSSY - Sydney Intl Airp, Australia
Distance from station: NE 236km
Updated: Mon, 20-Aug-2018 7:30am AEST
Clear
Clear
 Wind from W
Wind: W 28 km/h
Temperature: 9°C
Wind Chill: 6°C
Dew Point: -3°C
Humidity: 43%
Barometer: 1019 hPa
Summary: Clear
Visibility: greater than 10 km
2018/08/19 21:30 YSSY 192130Z 26015KT CAVOK 09/M03 Q1019 FM2130 MOD/SEV TURB BLW 5000FT
YSRI - Richmond (aus-Af, Australia
Distance from station: NE 240km
Updated: Mon, 20-Aug-2018 7:30am AEST
Clear
Clear
 Wind from SW
Wind: SW 15 km/h
Temperature: 9°C
Wind Chill: 7°C
Dew Point: -3°C
Humidity: 43%
Barometer: 1020 hPa
Clouds: Clear
Visibility: 10 km
2018/08/19 21:30 YSRI 192130Z AUTO 23008KT 9999 // NCD 09/M03 Q1020 RF00.0/000.0 PRESENT WEATHER SENSOR US
 
YNAR - Narrandera, Australia
Distance from station: WNW 254km
Updated: Mon, 20-Aug-2018 7:00am AEST

 Wind from W
Wind: W 11 km/h
Temperature: 2°C
Wind Chill: -1°C
Dew Point: 0°C
Humidity: 87%
Barometer: 1025 hPa
2018/08/19 21:00 YNAR 192100Z AUTO 26006KT //// // ////// 02/00 Q1025
YWGT - Wangaratta Arp, Australia
Distance from station: WSW 288km
Updated: Mon, 20-Aug-2018 7:00am AEST
Clear
Clear
 Wind from WSW
Wind: WSW 15 km/h
Temperature: 3°C
Wind Chill: -1°C
Dew Point: 1°C
Humidity: 87%
Barometer: 1023 hPa
Clouds: Clear
Visibility: 10 km
2018/08/19 21:00 YWGT 192100Z AUTO 24008KT 9999 // NCD 03/01 Q1023